Dundee, United Kingdom

3:31 PM BST on September 19, 2014 (GMT +0100)
Dundee | Change Station
CLOSE
Current Station
Airport
Location: Dundee,
Elevation: 13 ft
Nearby Weather Stations

Elev 13 ft 56.45 °N, 3.03 °W | Updated 11 minutes ago

Mostly Cloudy
Mostly Cloudy
59 °F
Feels Like 59 °F
N
1
Wind Variable Wind from SSW

Today
High -- | Low -- °F
--% Chance of Precip.
Yesterday
High -- | Low -- °F
Precip. -- in
6:50 AM 7:19 PM
Waning Crescent, 19% visible
Pressure 29.95 in
Visibility 6.2 miles
Clouds Few 1000 ft
Mostly Cloudy 1400 ft
Dew Point 55 °F
Humidity 88%
Rainfall 0.00 in
Snow Depth Not available.
UV 2 out of 12
Pollen Not available.
Air Quality Not available.
Flu Activity Not available.
METAR EGPN 191420Z 21001KT 9999 FEW010 BKN014 15/13 Q1014

More Conditions Fewer Conditions

Pressure 29.95 in
Visibility 6.2 miles
Clouds Few 1000 ft
Mostly Cloudy 1400 ft
Dew Point 55 °F
Humidity 88%
Rainfall 0.00 in
Snow Depth Not available.
UV 2 out of 12
Pollen Not available.
Air Quality Not available.
Flu Activity Not available.
METAR EGPN 191420Z 21001KT 9999 FEW010 BKN014 15/13 Q1014

More Conditions Fewer Conditions

10-Day Weather Forecast

Almanac

Astronomy

Sep. 19, 2014 Rise Set
Actual Time 6:50 AM BST 7:19 PM BST
Civil Twilight 6:13 AM BST 7:57 PM BST
Nautical Twilight 5:27 AM BST 8:42 PM BST
Astronomical Twilight 4:38 AM BST 9:31 PM BST
Moon 1:43 AM BST 5:14 PM BST
Length of Visible Light 13h 44m
Length of Day
12h 28m
Tomorrow will be 4m 42s shorter.
Waning Crescent, 19% of the Moon is Illuminated
Today
Waning Crescent
Sep 24
New
Oct 1
First Quarter
Oct 8
Full
Oct 15
Last Quarter

Today's Extremes

Country Highs Country Lows

Community

WunderPhotos

Upload Photos

1,754,624 photos uploaded!

Nearby

Snow Depth

Not available.

Earthquake Activity

City Distance Mag. Time & Date
No recent earthquake activity has been reported nearby.
Minimum magnitude displayed is 2.5.

Coastal Water Temperatures

Place Temperature
No Stations Reporting

Nearby Weather Stations